This is the latest recevied weather packets stored in our database for station/object OM3WYM-13. If no packets are shown the sender has not sent any weather packets the latest 10 day(s).
| Time | Temp. | Humidity | Pressure | Rain* | Wind** | Luminosity | Snow |
|---|---|---|---|---|---|---|---|
| 1778142608 | 20.56° C | 51% | 1011.5 hPa | - | - | - | - |
| 1778142008 | 20° C | 51% | 1011.3 hPa | - | - | - | - |
| 1778141408 | 20° C | 52% | 1011.5 hPa | - | - | - | - |
| 1778140808 | 20° C | 52% | 1011.3 hPa | - | - | - | - |
| 1778140208 | 19.44° C | 54% | 1011.3 hPa | - | - | - | - |
| 1778139608 | 19.44° C | 55% | 1011.3 hPa | - | - | - | - |
| 1778139008 | 19.44° C | 55% | 1011.2 hPa | - | - | - | - |
| 1778138408 | 18.89° C | 57% | 1011.3 hPa | - | - | - | - |
| 1778137808 | 18.89° C | 58% | 1011.3 hPa | - | - | - | - |
| 1778137208 | 18.89° C | 56% | 1011.1 hPa | - | - | - | - |
| 1778136608 | 18.89° C | 56% | 1011 hPa | - | - | - | - |
| 1778136008 | 18.33° C | 57% | 1010.9 hPa | - | - | - | - |
| 1778135408 | 17.78° C | 59% | 1011.2 hPa | - | - | - | - |
| 1778134808 | 17.22° C | 61% | 1011.3 hPa | - | - | - | - |
| 1778134208 | 17.22° C | 61% | 1011.2 hPa | - | - | - | - |
| 1778133608 | 16.67° C | 61% | 1011.1 hPa | - | - | - | - |
| 1778133008 | 16.11° C | 64% | 1011.1 hPa | - | - | - | - |
| 1778132408 | 16.11° C | 66% | 1011.3 hPa | - | - | - | - |
| 1778131808 | 15° C | 71% | 1011.3 hPa | - | - | - | - |
| 1778131208 | 13.89° C | 75% | 1011.5 hPa | - | - | - | - |
| 1778130608 | 13.33° C | 78% | 1011.6 hPa | - | - | - | - |
| 1778130008 | 12.78° C | 80% | 1011.4 hPa | - | - | - | - |
| 1778129408 | 12.78° C | 81% | 1011.4 hPa | - | - | - | - |
| 1778128808 | 12.22° C | 81% | 1011.6 hPa | - | - | - | - |
| 1778128208 | 12.22° C | 83% | 1011.7 hPa | - | - | - | - |
* Rain since midnight (hover to see other rain measurements)
** Current wind speed in m/s (hover to see current wind gust speed)